createdAt,value
2019-05-10T00:00:17.462Z,10.10
2019-05-10T00:03:03.795Z,10.10
2019-05-10T00:05:49.549Z,10.10
2019-05-10T00:08:35.568Z,10.10
2019-05-10T00:11:18.564Z,10.20
2019-05-10T00:13:49.995Z,10.20
2019-05-10T00:16:17.797Z,10.20
2019-05-10T00:18:45.584Z,10.30
2019-05-10T00:21:13.275Z,10.30
2019-05-10T00:23:40.978Z,10.30
2019-05-10T00:26:08.764Z,10.30
2019-05-10T00:28:36.835Z,10.30
2019-05-10T00:31:04.453Z,10.30
2019-05-10T00:33:32.691Z,10.30
2019-05-10T00:36:00.217Z,10.40
2019-05-10T00:38:28.018Z,10.40
2019-05-10T00:40:55.890Z,10.40
2019-05-10T00:43:23.480Z,10.40
2019-05-10T00:45:51.288Z,10.40
2019-05-10T00:48:18.846Z,10.40
2019-05-10T00:50:46.663Z,10.40
2019-05-10T00:53:14.551Z,10.40
2019-05-10T00:55:42.116Z,10.30
2019-05-10T00:58:09.674Z,10.30
2019-05-10T01:00:37.803Z,10.20
2019-05-10T01:03:05.345Z,10.20
2019-05-10T01:05:32.945Z,10.10
2019-05-10T01:08:00.559Z,10.10
2019-05-10T01:10:28.072Z,10.00
2019-05-10T01:12:56.293Z,9.90
2019-05-10T01:15:23.908Z,9.80
2019-05-10T01:17:51.701Z,9.80
2019-05-10T01:20:19.525Z,9.80
2019-05-10T01:22:47.046Z,9.80
2019-05-10T01:25:14.683Z,9.80
2019-05-10T01:27:42.232Z,9.70
2019-05-10T01:30:09.993Z,9.70
2019-05-10T01:32:37.519Z,9.70
2019-05-10T01:35:05.097Z,9.70
2019-05-10T01:37:32.666Z,9.60
2019-05-10T01:40:00.073Z,9.60
2019-05-10T01:42:27.612Z,9.40
2019-05-10T01:44:55.139Z,9.40
2019-05-10T01:47:22.639Z,9.20
2019-05-10T01:49:50.393Z,9.10
2019-05-10T01:52:17.833Z,9.10
2019-05-10T01:54:45.368Z,9.00
2019-05-10T01:57:13.225Z,9.00
2019-05-10T01:59:40.764Z,9.00
2019-05-10T02:02:08.306Z,9.10
2019-05-10T02:04:36.765Z,9.10
2019-05-10T02:07:04.841Z,9.10
2019-05-10T02:09:33.343Z,9.10
2019-05-10T02:12:01.391Z,9.10
2019-05-10T02:14:29.167Z,9.00
2019-05-10T02:16:56.707Z,8.90
2019-05-10T02:19:24.483Z,8.80
2019-05-10T02:21:52.300Z,8.70
2019-05-10T02:24:20.136Z,8.70
2019-05-10T02:26:48.153Z,8.70
2019-05-10T02:29:15.862Z,8.60
2019-05-10T02:31:43.618Z,8.60
2019-05-10T02:34:11.344Z,8.60
2019-05-10T02:36:39.271Z,8.70
2019-05-10T02:39:07.454Z,8.70
2019-05-10T02:41:35.206Z,8.70
2019-05-10T02:44:03.072Z,8.70
2019-05-10T02:46:30.577Z,8.70
2019-05-10T02:48:58.635Z,8.70
2019-05-10T02:51:26.319Z,8.70
2019-05-10T02:53:54.006Z,8.70
2019-05-10T02:56:30.554Z,8.70
2019-05-10T02:58:54.477Z,8.60
2019-05-10T03:01:24.614Z,8.60
2019-05-10T03:03:53.212Z,8.60
2019-05-10T03:06:21.892Z,8.50
2019-05-10T03:08:50.486Z,8.40
2019-05-10T03:11:18.697Z,8.30
2019-05-10T03:13:48.274Z,8.20
2019-05-10T03:16:18.671Z,8.20
2019-05-10T03:18:47.768Z,8.10
2019-05-10T03:21:17.177Z,8.10
2019-05-10T03:23:45.385Z,8.00
2019-05-10T03:26:12.923Z,8.00
2019-05-10T03:28:40.739Z,8.00
2019-05-10T03:31:08.207Z,8.00
2019-05-10T03:33:35.842Z,8.00
2019-05-10T03:36:03.437Z,8.00
2019-05-10T03:38:31.195Z,8.00
2019-05-10T03:40:59.068Z,8.00
2019-05-10T03:43:26.665Z,8.00
2019-05-10T03:45:54.469Z,8.00
2019-05-10T03:48:22.047Z,8.00
2019-05-10T03:50:49.701Z,8.00
2019-05-10T03:53:17.243Z,8.00
2019-05-10T03:55:44.791Z,8.00
2019-05-10T03:58:12.873Z,8.00
2019-05-10T04:00:40.409Z,7.90
2019-05-10T04:03:07.912Z,8.00
2019-05-10T04:05:35.756Z,8.00
2019-05-10T04:08:03.546Z,8.00
2019-05-10T04:10:31.453Z,8.00
2019-05-10T04:12:58.965Z,8.00
2019-05-10T04:15:26.477Z,8.10
2019-05-10T04:17:54.067Z,8.10
2019-05-10T04:20:21.860Z,8.20
2019-05-10T04:22:49.694Z,8.20
2019-05-10T04:25:17.407Z,8.30
2019-05-10T04:27:46.228Z,8.30
2019-05-10T04:30:14.089Z,8.40
2019-05-10T04:32:41.747Z,8.50
2019-05-10T04:35:09.586Z,8.50
2019-05-10T04:37:37.411Z,8.50
2019-05-10T04:40:04.892Z,8.60
2019-05-10T04:42:32.924Z,8.60
2019-05-10T04:45:00.397Z,8.70
2019-05-10T04:47:28.187Z,8.70
2019-05-10T04:49:56.276Z,8.80
2019-05-10T04:52:24.260Z,8.80
2019-05-10T04:54:51.759Z,8.90
2019-05-10T04:57:19.274Z,9.00
2019-05-10T04:59:47.120Z,9.00
2019-05-10T05:02:14.523Z,9.00
2019-05-10T05:04:42.367Z,9.10
2019-05-10T05:07:10.179Z,9.20
2019-05-10T05:09:37.896Z,9.20
2019-05-10T05:12:05.767Z,9.30
2019-05-10T05:14:33.304Z,9.40
2019-05-10T05:17:00.866Z,9.40
2019-05-10T05:19:28.670Z,9.40
2019-05-10T05:21:57.065Z,9.50
2019-05-10T05:24:24.658Z,9.60
2019-05-10T05:26:52.559Z,9.60
2019-05-10T05:29:20.410Z,9.70
2019-05-10T05:31:53.808Z,9.70
2019-05-10T05:34:18.295Z,9.80
2019-05-10T05:36:46.082Z,9.80
2019-05-10T05:39:13.619Z,9.90
2019-05-10T05:41:48.759Z,9.90
2019-05-10T05:44:11.400Z,10.00
2019-05-10T05:46:38.954Z,10.10
2019-05-10T05:49:06.616Z,10.10
2019-05-10T05:51:34.890Z,10.20
2019-05-10T05:54:04.189Z,10.30
2019-05-10T05:56:32.085Z,10.40
2019-05-10T05:58:59.914Z,10.50
2019-05-10T06:01:29.534Z,10.50
2019-05-10T06:04:00.050Z,10.60
2019-05-10T06:06:27.310Z,10.60
2019-05-10T06:08:59.603Z,10.70
2019-05-10T06:11:29.725Z,10.80
2019-05-10T06:13:54.811Z,10.80
2019-05-10T06:16:23.218Z,10.90
2019-05-10T06:18:50.762Z,11.00
2019-05-10T06:21:24.507Z,11.00
2019-05-10T06:23:49.452Z,11.00
2019-05-10T06:26:26.249Z,11.10
2019-05-10T06:29:04.664Z,11.20
2019-05-10T06:31:16.199Z,11.30
2019-05-10T06:33:45.030Z,11.40
2019-05-10T06:36:13.283Z,11.40
2019-05-10T06:38:41.271Z,11.50
2019-05-10T06:41:10.019Z,11.60
2019-05-10T06:43:38.249Z,11.70
2019-05-10T06:46:06.184Z,11.80
2019-05-10T06:48:33.866Z,11.80
2019-05-10T06:51:02.923Z,11.90
2019-05-10T06:53:31.193Z,11.90
2019-05-10T06:55:58.832Z,12.00
2019-05-10T06:58:30.605Z,12.00
2019-05-10T07:00:56.090Z,12.00
2019-05-10T07:03:24.534Z,12.10
2019-05-10T07:05:52.307Z,12.20
2019-05-10T07:08:20.550Z,12.20
2019-05-10T07:10:48.263Z,12.20
2019-05-10T07:13:15.813Z,12.30
2019-05-10T07:15:44.823Z,12.40
2019-05-10T07:18:16.776Z,12.50
2019-05-10T07:20:43.269Z,12.50
2019-05-10T07:23:11.109Z,12.60
2019-05-10T07:25:43.878Z,12.70
2019-05-10T07:28:09.674Z,12.70
2019-05-10T07:30:41.177Z,12.80
2019-05-10T07:33:06.998Z,12.90
2019-05-10T07:35:36.955Z,13.00
2019-05-10T07:38:04.310Z,13.10
2019-05-10T07:40:31.870Z,13.10
2019-05-10T07:42:59.426Z,13.10
2019-05-10T07:45:27.534Z,13.20
2019-05-10T07:47:54.997Z,13.30
2019-05-10T07:50:22.781Z,13.30
2019-05-10T07:52:50.621Z,13.20
2019-05-10T07:55:27.999Z,13.30
2019-05-10T07:57:48.560Z,13.40
2019-05-10T08:00:18.083Z,13.50
2019-05-10T08:02:55.018Z,13.50
2019-05-10T08:05:15.474Z,13.50
2019-05-10T08:07:43.475Z,13.60
2019-05-10T08:10:12.232Z,13.70
2019-05-10T08:12:45.282Z,13.80
2019-05-10T08:15:09.688Z,13.90
2019-05-10T08:17:43.277Z,13.90
2019-05-10T08:20:08.999Z,14.10
2019-05-10T08:22:41.552Z,14.10
2019-05-10T08:25:06.703Z,14.10
2019-05-10T08:27:34.281Z,14.10
2019-05-10T08:30:19.983Z,14.30
2019-05-10T08:32:34.529Z,14.30
2019-05-10T08:35:05.020Z,14.50
2019-05-10T08:37:36.004Z,14.70
2019-05-10T08:40:00.119Z,14.70
2019-05-10T08:42:42.838Z,14.70
2019-05-10T08:45:03.741Z,14.90
2019-05-10T08:47:27.826Z,14.90
2019-05-10T08:50:08.714Z,15.00
2019-05-10T08:52:30.864Z,15.20
2019-05-10T08:54:55.295Z,15.30
2019-05-10T08:57:23.007Z,15.30
2019-05-10T08:59:54.111Z,15.40
2019-05-10T09:02:28.656Z,15.40
2019-05-10T09:04:50.321Z,15.60
2019-05-10T09:07:19.523Z,15.60
2019-05-10T09:09:50.077Z,15.70
2019-05-10T09:12:16.438Z,15.80
2019-05-10T09:14:44.143Z,15.70
2019-05-10T09:17:14.852Z,15.80
2019-05-10T09:19:44.145Z,15.90
2019-05-10T09:22:12.483Z,16.10
2019-05-10T09:24:41.038Z,16.10
2019-05-10T09:27:09.735Z,16.00
2019-05-10T09:29:37.696Z,16.00
2019-05-10T09:32:06.699Z,16.00
2019-05-10T09:34:34.389Z,16.20
2019-05-10T09:37:02.977Z,16.40
2019-05-10T09:39:32.142Z,16.50
2019-05-10T09:42:06.186Z,16.50
2019-05-10T09:44:29.479Z,16.40
2019-05-10T09:46:56.999Z,16.50
2019-05-10T09:49:24.558Z,16.40
2019-05-10T09:51:54.879Z,16.40
2019-05-10T09:54:23.140Z,16.50
2019-05-10T09:56:52.580Z,16.70
2019-05-10T09:59:20.899Z,16.90
2019-05-10T10:01:48.543Z,17.00
2019-05-10T10:04:17.836Z,17.10
2019-05-10T10:06:50.505Z,16.90
2019-05-10T10:09:17.079Z,16.90
2019-05-10T10:11:48.554Z,17.10
2019-05-10T10:14:14.559Z,17.20
2019-05-10T10:16:48.865Z,17.40
2019-05-10T10:19:12.197Z,17.50
2019-05-10T10:21:39.703Z,17.30
2019-05-10T10:24:15.572Z,17.20
2019-05-10T10:26:38.178Z,17.20
2019-05-10T10:29:07.340Z,17.10
2019-05-10T10:31:48.334Z,17.10
2019-05-10T10:34:07.344Z,17.10
2019-05-10T10:36:40.228Z,17.10
2019-05-10T10:39:07.432Z,17.30
2019-05-10T10:41:35.024Z,17.30
2019-05-10T10:44:02.644Z,17.10
2019-05-10T10:46:34.246Z,16.90
2019-05-10T10:49:01.244Z,16.80
2019-05-10T10:51:32.169Z,16.90
2019-05-10T10:53:59.227Z,17.00
2019-05-10T10:56:27.699Z,17.30
2019-05-10T10:58:57.896Z,17.30
2019-05-10T11:01:25.767Z,17.30
2019-05-10T11:03:55.229Z,17.60
2019-05-10T11:06:23.693Z,17.70
2019-05-10T11:08:51.892Z,18.00
2019-05-10T11:11:20.207Z,18.20
2019-05-10T11:13:57.357Z,18.30
2019-05-10T11:16:17.997Z,18.40
2019-05-10T11:18:45.537Z,18.40
2019-05-10T11:21:13.524Z,18.50
2019-05-10T11:23:41.903Z,18.70
2019-05-10T11:26:10.831Z,18.70
2019-05-10T11:28:43.338Z,18.60
2019-05-10T11:31:08.252Z,18.60
2019-05-10T11:33:35.788Z,18.80
2019-05-10T11:36:08.450Z,18.80
2019-05-10T11:38:32.957Z,18.90
2019-05-10T11:41:01.995Z,18.90
2019-05-10T11:43:31.340Z,18.90
2019-05-10T11:45:59.056Z,19.00
2019-05-10T11:48:31.100Z,18.90
2019-05-10T11:50:55.984Z,19.00
2019-05-10T11:53:23.944Z,19.00
2019-05-10T11:55:51.867Z,18.70
2019-05-10T11:58:23.469Z,18.60
2019-05-10T12:00:55.941Z,18.90
2019-05-10T12:03:23.106Z,19.00
2019-05-10T12:05:56.454Z,19.30
2019-05-10T12:08:18.340Z,19.50
2019-05-10T12:10:52.984Z,19.70
2019-05-10T12:13:19.897Z,19.40
2019-05-10T12:15:44.729Z,19.50
2019-05-10T12:18:15.146Z,19.50
2019-05-10T12:20:55.898Z,19.50
2019-05-10T12:23:23.123Z,19.50
2019-05-10T12:25:57.488Z,19.50
2019-05-10T12:28:15.424Z,19.60
2019-05-10T12:30:40.953Z,19.50
2019-05-10T12:33:12.459Z,19.40
2019-05-10T12:35:44.568Z,19.30
2019-05-10T12:38:07.906Z,18.90
2019-05-10T12:40:36.058Z,18.80
2019-05-10T12:43:03.614Z,18.80
2019-05-10T12:45:31.550Z,19.00
2019-05-10T12:48:01.342Z,19.00
2019-05-10T12:50:29.191Z,19.30
2019-05-10T12:53:13.774Z,19.30
2019-05-10T12:55:27.010Z,19.50
2019-05-10T12:57:54.836Z,19.50
2019-05-10T13:00:23.371Z,19.30
2019-05-10T13:02:53.301Z,19.20
2019-05-10T13:05:30.851Z,19.60
2019-05-10T13:07:50.613Z,19.60
2019-05-10T13:10:18.221Z,19.50
2019-05-10T13:12:47.472Z,19.40
2019-05-10T13:15:15.599Z,19.20
2019-05-10T13:17:50.233Z,19.20
2019-05-10T13:20:12.907Z,19.30
2019-05-10T13:22:40.500Z,19.20
2019-05-10T13:25:09.134Z,19.10
2019-05-10T13:27:37.122Z,19.40
2019-05-10T13:30:05.868Z,19.70
2019-05-10T13:32:33.445Z,20.00
2019-05-10T13:35:01.746Z,20.40
2019-05-10T13:37:29.612Z,20.60
2019-05-10T13:39:58.342Z,20.70
2019-05-10T13:42:26.819Z,20.80
2019-05-10T13:44:54.365Z,20.50
2019-05-10T13:47:22.270Z,20.30
2019-05-10T13:49:50.232Z,20.30
2019-05-10T13:52:17.732Z,20.60
2019-05-10T13:54:45.667Z,20.60
2019-05-10T13:57:13.602Z,20.80
2019-05-10T13:59:41.139Z,20.90
2019-05-10T14:02:08.700Z,20.60
2019-05-10T14:04:38.563Z,20.40
2019-05-10T14:07:06.626Z,20.10
2019-05-10T14:09:34.487Z,19.90
2019-05-10T14:12:02.298Z,19.70
2019-05-10T14:14:30.161Z,19.60
2019-05-10T14:16:58.402Z,19.50
2019-05-10T14:19:26.329Z,19.50
2019-05-10T14:21:54.431Z,19.40
2019-05-10T14:24:22.367Z,19.30
2019-05-10T14:26:51.399Z,19.40
2019-05-10T14:29:19.663Z,19.30
2019-05-10T14:31:47.830Z,19.30
2019-05-10T14:34:15.876Z,19.20
2019-05-10T14:36:43.969Z,19.20
2019-05-10T14:39:11.498Z,19.10
2019-05-10T14:41:40.111Z,19.50
2019-05-10T14:44:07.895Z,19.70
2019-05-10T14:46:35.512Z,19.70
2019-05-10T14:49:09.581Z,19.60
2019-05-10T14:51:49.594Z,19.50
2019-05-10T14:54:06.503Z,19.50
2019-05-10T14:56:32.142Z,19.30
2019-05-10T14:58:59.789Z,19.20
2019-05-10T15:01:28.014Z,19.20
2019-05-10T15:03:55.966Z,19.30
2019-05-10T15:06:23.672Z,19.20
2019-05-10T15:08:51.465Z,19.10
2019-05-10T15:11:19.007Z,18.90
2019-05-10T15:13:46.692Z,18.80
2019-05-10T15:16:26.406Z,18.80
2019-05-10T15:18:44.620Z,19.00
2019-05-10T15:21:12.503Z,19.00
2019-05-10T15:23:40.063Z,19.00
2019-05-10T15:26:11.650Z,19.00
2019-05-10T15:28:40.224Z,19.00
2019-05-10T15:31:08.703Z,18.90
2019-05-10T15:33:36.313Z,18.70
2019-05-10T15:36:03.981Z,18.60
2019-05-10T15:38:31.795Z,18.60
2019-05-10T15:40:59.809Z,18.60
2019-05-10T15:43:27.986Z,18.50
2019-05-10T15:45:55.939Z,18.50
2019-05-10T15:48:23.840Z,18.50
2019-05-10T15:50:51.667Z,18.50
2019-05-10T15:53:24.813Z,18.60
2019-05-10T15:55:48.931Z,18.70
2019-05-10T15:58:16.552Z,19.00
2019-05-10T16:00:44.115Z,19.20
2019-05-10T16:03:12.064Z,19.90
2019-05-10T16:05:43.384Z,20.10
2019-05-10T16:08:13.518Z,20.40
2019-05-10T16:10:40.983Z,20.70
2019-05-10T16:13:08.726Z,20.50
2019-05-10T16:15:36.567Z,20.80
2019-05-10T16:18:04.360Z,21.00
2019-05-10T16:20:37.118Z,21.60
2019-05-10T16:23:06.358Z,22.20
2019-05-10T16:25:32.839Z,22.50
2019-05-10T16:28:01.134Z,23.10
2019-05-10T16:30:29.972Z,22.80
2019-05-10T16:32:57.697Z,22.20
2019-05-10T16:35:38.143Z,21.60
2019-05-10T16:37:54.701Z,21.30
2019-05-10T16:40:22.489Z,21.10
2019-05-10T16:42:50.416Z,20.90
2019-05-10T16:45:18.215Z,20.30
2019-05-10T16:47:46.316Z,19.90
2019-05-10T16:50:14.449Z,19.40
2019-05-10T16:52:42.828Z,19.20
2019-05-10T16:55:10.537Z,19.10
2019-05-10T16:57:39.491Z,19.10
2019-05-10T17:00:08.653Z,19.10
2019-05-10T17:02:42.124Z,19.20
2019-05-10T17:05:09.544Z,19.50
2019-05-10T17:07:36.485Z,19.90
2019-05-10T17:10:04.954Z,20.90
2019-05-10T17:12:33.118Z,22.20
2019-05-10T17:15:02.947Z,23.70
2019-05-10T17:17:31.216Z,24.90
2019-05-10T17:20:00.358Z,24.40
2019-05-10T17:22:27.985Z,23.70
2019-05-10T17:24:57.063Z,23.00
2019-05-10T17:27:25.410Z,22.40
2019-05-10T17:29:53.353Z,23.00
2019-05-10T17:32:24.674Z,23.20
2019-05-10T17:34:50.852Z,23.00
2019-05-10T17:37:18.544Z,22.90
2019-05-10T17:39:46.128Z,22.40
2019-05-10T17:42:13.689Z,21.80
2019-05-10T17:44:43.601Z,21.40
2019-05-10T17:47:10.991Z,21.00
2019-05-10T17:49:38.570Z,20.70
2019-05-10T17:52:06.708Z,20.20
2019-05-10T17:54:39.150Z,19.70
2019-05-10T17:57:04.551Z,19.20
2019-05-10T17:59:32.112Z,18.70
2019-05-10T18:01:59.740Z,18.40
2019-05-10T18:04:27.305Z,18.10
2019-05-10T18:06:54.883Z,17.80
2019-05-10T18:09:22.892Z,17.50
2019-05-10T18:11:50.933Z,17.20
2019-05-10T18:14:19.756Z,17.00
2019-05-10T18:16:49.954Z,16.90
2019-05-10T18:19:19.093Z,16.80
2019-05-10T18:21:47.776Z,16.80
2019-05-10T18:24:15.910Z,16.60
2019-05-10T18:26:43.508Z,16.60
2019-05-10T18:29:11.161Z,16.40
2019-05-10T18:31:38.957Z,16.30
2019-05-10T18:34:06.575Z,16.20
2019-05-10T18:36:51.154Z,16.00
2019-05-10T18:39:09.136Z,15.90
2019-05-10T18:41:35.856Z,15.80
2019-05-10T18:44:03.759Z,15.70
2019-05-10T18:46:31.288Z,15.60
2019-05-10T18:48:59.444Z,15.60
2019-05-10T18:51:27.349Z,15.50
2019-05-10T18:53:55.229Z,15.50
2019-05-10T18:56:25.312Z,15.40
2019-05-10T18:58:52.596Z,15.40
2019-05-10T19:01:20.693Z,15.30
2019-05-10T19:03:48.592Z,15.30
2019-05-10T19:06:16.912Z,15.20
2019-05-10T19:08:44.736Z,15.20
2019-05-10T19:11:12.893Z,15.10
2019-05-10T19:13:48.198Z,15.10
2019-05-10T19:16:10.341Z,14.90
2019-05-10T19:18:38.268Z,14.90
2019-05-10T19:21:05.767Z,14.90
2019-05-10T19:23:33.317Z,14.90
2019-05-10T19:26:01.262Z,14.90
2019-05-10T19:28:29.201Z,14.90
2019-05-10T19:30:58.648Z,14.90
2019-05-10T19:33:29.878Z,14.90
2019-05-10T19:35:56.620Z,14.90
2019-05-10T19:38:24.203Z,14.80
2019-05-10T19:40:52.110Z,14.80
2019-05-10T19:43:21.691Z,14.70
2019-05-10T19:45:51.086Z,14.60
2019-05-10T19:48:20.135Z,14.50
2019-05-10T19:50:47.867Z,14.50
2019-05-10T19:53:15.655Z,14.50
2019-05-10T19:55:43.811Z,14.50
2019-05-10T19:58:11.276Z,14.50
2019-05-10T20:00:38.974Z,14.50
2019-05-10T20:03:06.828Z,14.40
2019-05-10T20:05:34.733Z,14.50
2019-05-10T20:08:02.708Z,14.50
2019-05-10T20:10:30.601Z,14.60
2019-05-10T20:12:58.559Z,14.60
2019-05-10T20:15:26.116Z,14.50
2019-05-10T20:17:53.926Z,14.50
2019-05-10T20:20:21.572Z,14.50
2019-05-10T20:22:49.775Z,14.40
2019-05-10T20:25:17.438Z,14.40
2019-05-10T20:27:45.615Z,14.40
2019-05-10T20:30:13.180Z,14.30
2019-05-10T20:32:40.704Z,14.30
2019-05-10T20:35:08.887Z,14.30
2019-05-10T20:37:36.502Z,14.20
2019-05-10T20:40:04.658Z,14.20
2019-05-10T20:42:33.119Z,14.10
2019-05-10T20:45:07.483Z,14.00
2019-05-10T20:47:30.231Z,14.00
2019-05-10T20:49:57.821Z,13.90
2019-05-10T20:52:25.774Z,13.90
2019-05-10T20:54:53.341Z,13.80
2019-05-10T20:57:21.194Z,13.80
2019-05-10T20:59:49.095Z,13.80
2019-05-10T21:02:17.294Z,13.70
2019-05-10T21:04:45.545Z,13.60
2019-05-10T21:07:13.138Z,13.50
2019-05-10T21:09:41.056Z,13.40
2019-05-10T21:12:09.185Z,13.30
2019-05-10T21:14:37.432Z,13.30
2019-05-10T21:17:05.256Z,13.30
2019-05-10T21:19:32.854Z,13.30
2019-05-10T21:22:01.113Z,13.30
2019-05-10T21:24:28.666Z,13.30
2019-05-10T21:26:56.560Z,13.20
2019-05-10T21:29:24.464Z,13.20
2019-05-10T21:31:52.021Z,13.20
2019-05-10T21:34:19.774Z,13.20
2019-05-10T21:36:47.329Z,13.30
2019-05-10T21:39:15.049Z,13.30
2019-05-10T21:41:42.857Z,13.30
2019-05-10T21:44:10.780Z,13.30
2019-05-10T21:46:38.336Z,13.30
2019-05-10T21:49:06.189Z,13.30
2019-05-10T21:51:34.047Z,13.30
2019-05-10T21:54:02.216Z,13.40
2019-05-10T21:56:30.093Z,13.40
2019-05-10T21:58:57.578Z,13.40
2019-05-10T22:01:25.430Z,13.40
2019-05-10T22:03:52.951Z,13.40
2019-05-10T22:06:20.407Z,13.40
2019-05-10T22:08:49.707Z,13.40
2019-05-10T22:11:17.914Z,13.40
2019-05-10T22:13:45.475Z,13.40
2019-05-10T22:16:14.335Z,13.40
2019-05-10T22:18:42.304Z,13.30
2019-05-10T22:21:09.892Z,13.30
2019-05-10T22:23:37.410Z,13.30
2019-05-10T22:26:05.566Z,13.30
2019-05-10T22:28:33.439Z,13.30
2019-05-10T22:31:00.960Z,13.10
2019-05-10T22:33:29.114Z,13.00
2019-05-10T22:35:57.122Z,13.00
2019-05-10T22:38:24.565Z,13.00
2019-05-10T22:40:52.155Z,12.90
2019-05-10T22:43:19.733Z,12.90
2019-05-10T22:45:47.615Z,13.00
2019-05-10T22:48:15.496Z,13.00
2019-05-10T22:50:43.021Z,13.00
2019-05-10T22:53:10.677Z,13.00
2019-05-10T22:55:38.220Z,13.00
2019-05-10T22:58:06.146Z,12.90
2019-05-10T23:00:33.966Z,12.90
2019-05-10T23:03:01.877Z,12.90
2019-05-10T23:05:29.391Z,13.00
2019-05-10T23:07:56.841Z,12.90
2019-05-10T23:10:24.757Z,12.90
2019-05-10T23:12:52.255Z,12.80
2019-05-10T23:15:20.020Z,12.70
2019-05-10T23:17:47.480Z,12.70
2019-05-10T23:20:15.059Z,12.70
2019-05-10T23:22:42.640Z,12.70
2019-05-10T23:25:10.204Z,12.70
2019-05-10T23:27:37.906Z,12.70
2019-05-10T23:30:05.376Z,12.80
2019-05-10T23:32:33.308Z,12.70
2019-05-10T23:35:01.252Z,12.60
2019-05-10T23:37:28.785Z,12.40
2019-05-10T23:39:56.738Z,12.40
2019-05-10T23:42:24.338Z,12.50
2019-05-10T23:44:51.868Z,12.50
2019-05-10T23:47:20.034Z,12.50
2019-05-10T23:49:47.552Z,12.60
2019-05-10T23:52:15.435Z,12.60
2019-05-10T23:54:43.289Z,12.60
2019-05-10T23:57:11.448Z,12.60
2019-05-10T23:59:39.211Z,12.60
